sensor_id;sensor_type;location;lat;lon;timestamp;pressure;altitude;pressure_sealevel;temperature;humidity
47588;BME280;34356;45.788;12.046;2022-08-24T00:00:30;100138.43;;;25.38;36.55
47588;BME280;34356;45.788;12.046;2022-08-24T00:02:57;100137.48;;;25.13;36.54
47588;BME280;34356;45.788;12.046;2022-08-24T00:05:25;100135.54;;;25.10;36.65
47588;BME280;34356;45.788;12.046;2022-08-24T00:07:52;100134.65;;;25.29;36.68
47588;BME280;34356;45.788;12.046;2022-08-24T00:10:19;100136.20;;;25.03;36.71
47588;BME280;34356;45.788;12.046;2022-08-24T00:12:47;100134.35;;;25.22;36.76
47588;BME280;34356;45.788;12.046;2022-08-24T00:15:15;100134.26;;;25.20;36.81
47588;BME280;34356;45.788;12.046;2022-08-24T00:17:43;100132.01;;;25.20;36.82
47588;BME280;34356;45.788;12.046;2022-08-24T00:20:11;100130.88;;;24.99;36.80
47588;BME280;34356;45.788;12.046;2022-08-24T00:22:39;100132.02;;;25.22;36.79
47588;BME280;34356;45.788;12.046;2022-08-24T00:25:08;100130.49;;;25.22;36.80
47588;BME280;34356;45.788;12.046;2022-08-24T00:27:36;100127.78;;;25.22;36.82
47588;BME280;34356;45.788;12.046;2022-08-24T00:30:05;100125.79;;;25.01;36.81
47588;BME280;34356;45.788;12.046;2022-08-24T00:32:32;100121.27;;;25.20;36.84
47588;BME280;34356;45.788;12.046;2022-08-24T00:35:00;100120.14;;;24.94;36.85
47588;BME280;34356;45.788;12.046;2022-08-24T00:37:27;100122.32;;;25.14;36.93
47588;BME280;34356;45.788;12.046;2022-08-24T00:39:54;100124.67;;;25.14;36.95
47588;BME280;34356;45.788;12.046;2022-08-24T00:42:23;100127.28;;;24.91;36.98
47588;BME280;34356;45.788;12.046;2022-08-24T00:44:50;100129.73;;;24.92;36.93
47588;BME280;34356;45.788;12.046;2022-08-24T00:47:20;100127.07;;;24.92;36.98
47588;BME280;34356;45.788;12.046;2022-08-24T00:49:54;100127.56;;;25.17;36.91
47588;BME280;34356;45.788;12.046;2022-08-24T00:52:26;100120.41;;;24.96;36.84
47588;BME280;34356;45.788;12.046;2022-08-24T00:54:59;100121.88;;;24.99;36.77
47588;BME280;34356;45.788;12.046;2022-08-24T00:57:29;100122.13;;;25.00;36.72
47588;BME280;34356;45.788;12.046;2022-08-24T01:00:01;100119.52;;;25.01;36.69
47588;BME280;34356;45.788;12.046;2022-08-24T01:02:32;100120.66;;;24.97;36.69
47588;BME280;34356;45.788;12.046;2022-08-24T01:05:03;100118.06;;;24.71;36.67
47588;BME280;34356;45.788;12.046;2022-08-24T01:07:33;100117.52;;;24.92;36.63
47588;BME280;34356;45.788;12.046;2022-08-24T01:10:03;100115.12;;;24.70;36.52
47588;BME280;34356;45.788;12.046;2022-08-24T01:12:34;100110.50;;;24.92;36.48
47588;BME280;34356;45.788;12.046;2022-08-24T01:15:05;100107.57;;;24.92;36.42
47588;BME280;34356;45.788;12.046;2022-08-24T01:17:35;100106.37;;;24.89;36.44
47588;BME280;34356;45.788;12.046;2022-08-24T01:20:05;100105.63;;;25.04;36.54
47588;BME280;34356;45.788;12.046;2022-08-24T01:22:46;100104.82;;;25.01;36.51
47588;BME280;34356;45.788;12.046;2022-08-24T01:25:16;100103.91;;;25.27;36.44
47588;BME280;34356;45.788;12.046;2022-08-24T01:27:44;100101.75;;;25.25;36.45
47588;BME280;34356;45.788;12.046;2022-08-24T01:30:14;100104.39;;;24.97;36.50
47588;BME280;34356;45.788;12.046;2022-08-24T01:32:51;100103.82;;;24.94;36.56
47588;BME280;34356;45.788;12.046;2022-08-24T01:35:19;100103.04;;;24.85;36.66
47588;BME280;34356;45.788;12.046;2022-08-24T01:37:47;100103.07;;;24.78;36.80
47588;BME280;34356;45.788;12.046;2022-08-24T01:40:15;100102.40;;;24.76;36.76
47588;BME280;34356;45.788;12.046;2022-08-24T01:42:47;100104.56;;;24.71;36.82
47588;BME280;34356;45.788;12.046;2022-08-24T01:45:16;100107.77;;;24.65;36.94
47588;BME280;34356;45.788;12.046;2022-08-24T01:47:43;100107.24;;;24.63;36.99
47588;BME280;34356;45.788;12.046;2022-08-24T01:50:10;100109.26;;;24.62;37.01
47588;BME280;34356;45.788;12.046;2022-08-24T01:52:40;100110.07;;;24.86;37.07
47588;BME280;34356;45.788;12.046;2022-08-24T01:55:11;100111.82;;;24.84;37.12
47588;BME280;34356;45.788;12.046;2022-08-24T01:57:39;100115.45;;;24.82;37.16
47588;BME280;34356;45.788;12.046;2022-08-24T02:00:11;100116.32;;;24.55;37.20
47588;BME280;34356;45.788;12.046;2022-08-24T02:02:40;100115.77;;;24.55;37.20
47588;BME280;34356;45.788;12.046;2022-08-24T02:05:11;100116.81;;;24.32;37.20
47588;BME280;34356;45.788;12.046;2022-08-24T02:07:39;100119.48;;;24.76;37.27
47588;BME280;34356;45.788;12.046;2022-08-24T02:10:09;100122.48;;;24.70;37.39
47588;BME280;34356;45.788;12.046;2022-08-24T02:12:38;100124.11;;;24.66;37.43
47588;BME280;34356;45.788;12.046;2022-08-24T02:15:07;100126.18;;;24.64;37.46
47588;BME280;34356;45.788;12.046;2022-08-24T02:17:35;100128.39;;;24.61;37.57
47588;BME280;34356;45.788;12.046;2022-08-24T02:20:04;100129.26;;;24.32;37.59
47588;BME280;34356;45.788;12.046;2022-08-24T02:22:32;100127.47;;;24.26;37.58
47588;BME280;34356;45.788;12.046;2022-08-24T02:24:59;100128.99;;;24.17;37.73
47588;BME280;34356;45.788;12.046;2022-08-24T02:27:27;100132.02;;;24.35;37.92
47588;BME280;34356;45.788;12.046;2022-08-24T02:29:54;100136.48;;;24.34;37.92
47588;BME280;34356;45.788;12.046;2022-08-24T02:32:22;100136.68;;;24.31;38.03
47588;BME280;34356;45.788;12.046;2022-08-24T02:34:49;100133.57;;;24.31;38.07
47588;BME280;34356;45.788;12.046;2022-08-24T02:37:16;100132.50;;;24.28;38.14
47588;BME280;34356;45.788;12.046;2022-08-24T02:39:42;100130.64;;;24.43;38.21
47588;BME280;34356;45.788;12.046;2022-08-24T02:42:09;100131.97;;;24.11;38.28
47588;BME280;34356;45.788;12.046;2022-08-24T02:44:36;100131.98;;;24.45;38.48
47588;BME280;34356;45.788;12.046;2022-08-24T02:47:03;100135.48;;;23.89;38.57
47588;BME280;34356;45.788;12.046;2022-08-24T02:49:31;100133.31;;;24.06;38.56
47588;BME280;34356;45.788;12.046;2022-08-24T02:51:58;100134.82;;;23.83;38.68
47588;BME280;34356;45.788;12.046;2022-08-24T02:54:26;100134.34;;;24.07;38.67
47588;BME280;34356;45.788;12.046;2022-08-24T02:56:53;100133.70;;;23.86;38.71
47588;BME280;34356;45.788;12.046;2022-08-24T02:59:21;100133.98;;;23.85;38.63
47588;BME280;34356;45.788;12.046;2022-08-24T03:01:49;100131.31;;;23.82;38.72
47588;BME280;34356;45.788;12.046;2022-08-24T03:04:17;100130.91;;;23.96;38.84
47588;BME280;34356;45.788;12.046;2022-08-24T03:06:44;100129.93;;;23.68;38.92
47588;BME280;34356;45.788;12.046;2022-08-24T03:09:11;100126.80;;;23.82;39.04
47588;BME280;34356;45.788;12.046;2022-08-24T03:11:39;100126.16;;;23.53;39.14
47588;BME280;34356;45.788;12.046;2022-08-24T03:14:07;100127.69;;;23.49;39.14
47588;BME280;34356;45.788;12.046;2022-08-24T03:16:34;100128.85;;;23.41;39.24
47588;BME280;34356;45.788;12.046;2022-08-24T03:19:02;100130.54;;;23.33;39.32
47588;BME280;34356;45.788;12.046;2022-08-24T03:21:29;100128.44;;;23.52;39.40
47588;BME280;34356;45.788;12.046;2022-08-24T03:23:57;100127.08;;;23.68;39.43
47588;BME280;34356;45.788;12.046;2022-08-24T03:26:24;100126.49;;;23.42;39.52
47588;BME280;34356;45.788;12.046;2022-08-24T03:28:51;100122.39;;;23.59;39.51
47588;BME280;34356;45.788;12.046;2022-08-24T03:31:18;100122.48;;;23.32;39.66
47588;BME280;34356;45.788;12.046;2022-08-24T03:33:45;100121.80;;;23.28;39.64
47588;BME280;34356;45.788;12.046;2022-08-24T03:36:12;100121.01;;;23.46;39.72
47588;BME280;34356;45.788;12.046;2022-08-24T03:38:38;100122.97;;;23.41;39.80
47588;BME280;34356;45.788;12.046;2022-08-24T03:41:05;100121.49;;;23.15;39.76
47588;BME280;34356;45.788;12.046;2022-08-24T03:43:32;100120.30;;;23.32;39.76
47588;BME280;34356;45.788;12.046;2022-08-24T03:46:00;100120.16;;;23.27;39.85
47588;BME280;34356;45.788;12.046;2022-08-24T03:48:28;100120.74;;;23.24;39.89
47588;BME280;34356;45.788;12.046;2022-08-24T03:50:56;100119.37;;;23.28;39.91
47588;BME280;34356;45.788;12.046;2022-08-24T03:53:23;100120.63;;;23.34;39.83
47588;BME280;34356;45.788;12.046;2022-08-24T03:55:51;100121.56;;;23.17;39.75
47588;BME280;34356;45.788;12.046;2022-08-24T03:58:18;100122.55;;;23.42;39.72
47588;BME280;34356;45.788;12.046;2022-08-24T04:00:46;100122.68;;;23.23;39.68
47588;BME280;34356;45.788;12.046;2022-08-24T04:03:14;100122.86;;;23.48;39.60
47588;BME280;34356;45.788;12.046;2022-08-24T04:05:41;100123.44;;;23.47;39.59
47588;BME280;34356;45.788;12.046;2022-08-24T04:08:09;100123.74;;;23.49;39.56
47588;BME280;34356;45.788;12.046;2022-08-24T04:10:39;100126.86;;;23.50;39.55
47588;BME280;34356;45.788;12.046;2022-08-24T04:13:09;100127.71;;;23.28;39.50
47588;BME280;34356;45.788;12.046;2022-08-24T04:15:39;100125.28;;;23.48;39.47
47588;BME280;34356;45.788;12.046;2022-08-24T04:18:07;100128.79;;;23.23;39.48
47588;BME280;34356;45.788;12.046;2022-08-24T04:20:38;100130.05;;;23.44;39.47
47588;BME280;34356;45.788;12.046;2022-08-24T04:23:06;100131.21;;;22.95;39.51
47588;BME280;34356;45.788;12.046;2022-08-24T04:25:39;100133.15;;;23.37;39.51
47588;BME280;34356;45.788;12.046;2022-08-24T04:28:07;100128.91;;;23.34;39.53
47588;BME280;34356;45.788;12.046;2022-08-24T04:30:34;100128.04;;;23.33;39.44
47588;BME280;34356;45.788;12.046;2022-08-24T04:33:05;100134.83;;;23.28;39.54
47588;BME280;34356;45.788;12.046;2022-08-24T04:35:36;100136.44;;;23.25;39.51
47588;BME280;34356;45.788;12.046;2022-08-24T04:38:04;100143.43;;;23.24;39.50
47588;BME280;34356;45.788;12.046;2022-08-24T04:40:31;100144.63;;;23.21;39.63
47588;BME280;34356;45.788;12.046;2022-08-24T04:42:58;100146.94;;;22.97;39.59
47588;BME280;34356;45.788;12.046;2022-08-24T04:45:26;100146.29;;;23.16;39.59
47588;BME280;34356;45.788;12.046;2022-08-24T04:47:54;100149.08;;;22.86;39.73
47588;BME280;34356;45.788;12.046;2022-08-24T04:50:21;100149.78;;;23.01;39.81
47588;BME280;34356;45.788;12.046;2022-08-24T04:52:49;100154.80;;;22.96;39.83
47588;BME280;34356;45.788;12.046;2022-08-24T04:55:17;100156.38;;;22.94;40.02
47588;BME280;34356;45.788;12.046;2022-08-24T04:57:45;100165.44;;;22.81;40.04
47588;BME280;34356;45.788;12.046;2022-08-24T05:00:13;100171.15;;;23.11;40.17
47588;BME280;34356;45.788;12.046;2022-08-24T05:02:40;100175.49;;;23.48;40.05
47588;BME280;34356;45.788;12.046;2022-08-24T05:05:08;100175.00;;;23.31;40.06
47588;BME280;34356;45.788;12.046;2022-08-24T05:07:36;100175.84;;;23.46;39.96
47588;BME280;34356;45.788;12.046;2022-08-24T05:10:05;100178.14;;;23.12;39.94
47588;BME280;34356;45.788;12.046;2022-08-24T05:12:33;100176.91;;;23.66;39.83
47588;BME280;34356;45.788;12.046;2022-08-24T05:15:00;100174.39;;;23.24;39.82
47588;BME280;34356;45.788;12.046;2022-08-24T05:17:28;100174.79;;;23.49;40.01
47588;BME280;34356;45.788;12.046;2022-08-24T05:19:56;100177.54;;;23.53;39.84
47588;BME280;34356;45.788;12.046;2022-08-24T05:22:24;100179.32;;;23.51;40.00
47588;BME280;34356;45.788;12.046;2022-08-24T05:24:51;100181.88;;;23.75;39.93
47588;BME280;34356;45.788;12.046;2022-08-24T05:27:18;100186.25;;;23.73;40.22
47588;BME280;34356;45.788;12.046;2022-08-24T05:29:45;100191.26;;;23.75;40.21
47588;BME280;34356;45.788;12.046;2022-08-24T05:32:15;100191.12;;;23.33;39.98
47588;BME280;34356;45.788;12.046;2022-08-24T05:34:43;100194.90;;;23.75;40.03
47588;BME280;34356;45.788;12.046;2022-08-24T05:37:10;100190.88;;;23.51;39.97
47588;BME280;34356;45.788;12.046;2022-08-24T05:39:38;100190.03;;;23.74;40.00
47588;BME280;34356;45.788;12.046;2022-08-24T05:42:05;100188.09;;;23.55;40.03
47588;BME280;34356;45.788;12.046;2022-08-24T05:44:33;100190.67;;;23.81;39.83
47588;BME280;34356;45.788;12.046;2022-08-24T05:47:01;100186.44;;;23.39;39.95
47588;BME280;34356;45.788;12.046;2022-08-24T05:49:29;100186.89;;;23.93;39.86
47588;BME280;34356;45.788;12.046;2022-08-24T05:51:57;100189.14;;;23.80;39.90
47588;BME280;34356;45.788;12.046;2022-08-24T05:54:24;100192.06;;;23.85;39.66
47588;BME280;34356;45.788;12.046;2022-08-24T05:56:52;100197.45;;;24.06;39.69
47588;BME280;34356;45.788;12.046;2022-08-24T05:59:19;100200.28;;;24.07;39.65
47588;BME280;34356;45.788;12.046;2022-08-24T06:01:45;100203.79;;;24.10;39.69
47588;BME280;34356;45.788;12.046;2022-08-24T06:04:13;100205.71;;;23.93;39.57
47588;BME280;34356;45.788;12.046;2022-08-24T06:06:40;100204.26;;;23.96;39.65
47588;BME280;34356;45.788;12.046;2022-08-24T06:09:09;100206.22;;;23.80;39.61
47588;BME280;34356;45.788;12.046;2022-08-24T06:11:39;100203.85;;;23.88;39.54
47588;BME280;34356;45.788;12.046;2022-08-24T06:14:09;100205.57;;;23.96;39.48
47588;BME280;34356;45.788;12.046;2022-08-24T06:16:39;100202.44;;;24.00;39.40
47588;BME280;34356;45.788;12.046;2022-08-24T06:19:10;100202.06;;;24.03;39.33
47588;BME280;34356;45.788;12.046;2022-08-24T06:21:38;100202.07;;;24.30;39.39
47588;BME280;34356;45.788;12.046;2022-08-24T06:24:06;100201.11;;;24.13;39.34
47588;BME280;34356;45.788;12.046;2022-08-24T06:26:33;100199.96;;;24.20;39.31
47588;BME280;34356;45.788;12.046;2022-08-24T06:29:01;100200.92;;;24.28;39.30
47588;BME280;34356;45.788;12.046;2022-08-24T06:31:29;100202.14;;;24.42;39.11
47588;BME280;34356;45.788;12.046;2022-08-24T06:33:57;100205.50;;;24.51;39.12
47588;BME280;34356;45.788;12.046;2022-08-24T06:36:25;100208.76;;;24.62;39.03
47588;BME280;34356;45.788;12.046;2022-08-24T06:38:52;100207.32;;;24.74;38.88
47588;BME280;34356;45.788;12.046;2022-08-24T06:41:19;100208.69;;;24.57;38.83
47588;BME280;34356;45.788;12.046;2022-08-24T06:43:46;100211.70;;;24.94;38.76
47588;BME280;34356;45.788;12.046;2022-08-24T06:46:13;100211.67;;;24.52;38.69
47588;BME280;34356;45.788;12.046;2022-08-24T06:48:40;100209.46;;;25.06;38.64
47588;BME280;34356;45.788;12.046;2022-08-24T06:51:09;100208.80;;;24.89;38.58
47588;BME280;34356;45.788;12.046;2022-08-24T06:53:37;100210.70;;;24.79;38.47
47588;BME280;34356;45.788;12.046;2022-08-24T06:56:04;100210.13;;;25.12;38.42
47588;BME280;34356;45.788;12.046;2022-08-24T06:58:33;100212.90;;;25.21;38.40
47588;BME280;34356;45.788;12.046;2022-08-24T07:01:07;100217.12;;;25.08;38.32
47588;BME280;34356;45.788;12.046;2022-08-24T07:03:35;100219.88;;;25.16;38.25
47588;BME280;34356;45.788;12.046;2022-08-24T07:06:03;100220.80;;;25.26;38.13
47588;BME280;34356;45.788;12.046;2022-08-24T07:08:31;100222.17;;;25.59;37.99
47588;BME280;34356;45.788;12.046;2022-08-24T07:10:59;100221.07;;;24.95;37.89
47588;BME280;34356;45.788;12.046;2022-08-24T07:13:26;100224.47;;;25.50;37.80
47588;BME280;34356;45.788;12.046;2022-08-24T07:15:53;100223.19;;;25.58;37.68
47588;BME280;34356;45.788;12.046;2022-08-24T07:18:20;100220.40;;;25.67;37.56
47588;BME280;34356;45.788;12.046;2022-08-24T07:20:48;100221.90;;;25.70;37.39
47588;BME280;34356;45.788;12.046;2022-08-24T07:23:16;100222.37;;;25.75;37.40
47588;BME280;34356;45.788;12.046;2022-08-24T07:25:44;100222.57;;;25.81;37.38
47588;BME280;34356;45.788;12.046;2022-08-24T07:28:13;100219.53;;;25.91;37.26
47588;BME280;34356;45.788;12.046;2022-08-24T07:30:41;100222.11;;;25.77;37.18
47588;BME280;34356;45.788;12.046;2022-08-24T07:33:09;100220.70;;;25.85;37.12
47588;BME280;34356;45.788;12.046;2022-08-24T07:35:37;100220.38;;;25.93;37.08
47588;BME280;34356;45.788;12.046;2022-08-24T07:38:06;100216.78;;;25.75;37.04
47588;BME280;34356;45.788;12.046;2022-08-24T07:40:34;100220.38;;;26.11;37.00
47588;BME280;34356;45.788;12.046;2022-08-24T07:43:01;100219.14;;;25.91;36.94
47588;BME280;34356;45.788;12.046;2022-08-24T07:45:28;100218.83;;;26.25;36.91
47588;BME280;34356;45.788;12.046;2022-08-24T07:47:56;100220.00;;;26.06;36.82
47588;BME280;34356;45.788;12.046;2022-08-24T07:50:24;100216.86;;;26.13;36.68
47588;BME280;34356;45.788;12.046;2022-08-24T07:52:52;100218.92;;;26.15;36.60
47588;BME280;34356;45.788;12.046;2022-08-24T07:55:19;100221.06;;;26.45;36.54
47588;BME280;34356;45.788;12.046;2022-08-24T07:57:47;100221.09;;;26.23;36.52
47588;BME280;34356;45.788;12.046;2022-08-24T08:00:16;100225.11;;;26.79;36.34
47588;BME280;34356;45.788;12.046;2022-08-24T08:02:43;100224.63;;;26.27;36.34
47588;BME280;34356;45.788;12.046;2022-08-24T08:05:10;100223.01;;;26.53;36.37
47588;BME280;34356;45.788;12.046;2022-08-24T08:07:38;100225.77;;;26.32;36.29
47588;BME280;34356;45.788;12.046;2022-08-24T08:10:06;100227.47;;;26.42;36.13
47588;BME280;34356;45.788;12.046;2022-08-24T08:12:33;100226.69;;;26.47;36.03
47588;BME280;34356;45.788;12.046;2022-08-24T08:15:00;100227.84;;;26.25;36.00
47588;BME280;34356;45.788;12.046;2022-08-24T08:17:27;100230.08;;;26.47;35.93
47588;BME280;34356;45.788;12.046;2022-08-24T08:19:55;100228.91;;;26.47;35.97
47588;BME280;34356;45.788;12.046;2022-08-24T08:22:22;100223.26;;;26.46;35.87
47588;BME280;34356;45.788;12.046;2022-08-24T08:24:49;100223.15;;;26.43;35.87
47588;BME280;34356;45.788;12.046;2022-08-24T08:27:16;100222.39;;;26.44;35.86
47588;BME280;34356;45.788;12.046;2022-08-24T08:29:43;100223.87;;;26.47;35.88
47588;BME280;34356;45.788;12.046;2022-08-24T08:32:12;100221.96;;;26.44;35.90
47588;BME280;34356;45.788;12.046;2022-08-24T08:34:39;100221.35;;;26.44;35.94
47588;BME280;34356;45.788;12.046;2022-08-24T08:37:06;100223.54;;;26.47;35.93
47588;BME280;34356;45.788;12.046;2022-08-24T08:39:34;100222.12;;;26.50;35.88
47588;BME280;34356;45.788;12.046;2022-08-24T08:42:14;100218.98;;;26.53;35.84
47588;BME280;34356;45.788;12.046;2022-08-24T08:44:54;100222.69;;;26.58;35.87
47588;BME280;34356;45.788;12.046;2022-08-24T08:47:50;100222.65;;;26.63;35.69
47588;BME280;34356;45.788;12.046;2022-08-24T08:50:28;100220.07;;;26.62;35.68
47588;BME280;34356;45.788;12.046;2022-08-24T08:53:26;100216.01;;;26.41;35.68
47588;BME280;34356;45.788;12.046;2022-08-24T08:56:05;100214.43;;;26.70;35.59
47588;BME280;34356;45.788;12.046;2022-08-24T08:58:49;100213.41;;;26.78;35.56
47588;BME280;34356;45.788;12.046;2022-08-24T09:01:26;100212.93;;;26.66;35.45
47588;BME280;34356;45.788;12.046;2022-08-24T09:04:09;100208.45;;;26.97;35.37
47588;BME280;34356;45.788;12.046;2022-08-24T09:06:51;100205.26;;;27.05;35.29
47588;BME280;34356;45.788;12.046;2022-08-24T09:09:35;100205.69;;;26.88;35.20
47588;BME280;34356;45.788;12.046;2022-08-24T09:12:17;100204.94;;;27.12;35.12
47588;BME280;34356;45.788;12.046;2022-08-24T09:17:29;100203.18;;;27.48;35.30
47588;BME280;34356;45.788;12.046;2022-08-24T09:20:14;100199.98;;;26.97;35.07
47588;BME280;34356;45.788;12.046;2022-08-24T09:22:47;100201.18;;;27.28;34.95
47588;BME280;34356;45.788;12.046;2022-08-24T09:25:22;100199.77;;;27.07;34.93
47588;BME280;34356;45.788;12.046;2022-08-24T09:28:06;100196.07;;;27.25;34.97
47588;BME280;34356;45.788;12.046;2022-08-24T09:31:01;100192.74;;;27.24;34.96
47588;BME280;34356;45.788;12.046;2022-08-24T09:33:36;100190.66;;;27.23;34.94
47588;BME280;34356;45.788;12.046;2022-08-24T09:36:10;100187.64;;;27.23;34.90
47588;BME280;34356;45.788;12.046;2022-08-24T09:39:20;100187.62;;;27.25;34.94
47588;BME280;34356;45.788;12.046;2022-08-24T09:42:18;100184.33;;;27.33;34.89
47588;BME280;34356;45.788;12.046;2022-08-24T09:45:04;100185.79;;;27.41;34.83
47588;BME280;34356;45.788;12.046;2022-08-24T09:47:51;100182.69;;;27.24;34.74
47588;BME280;34356;45.788;12.046;2022-08-24T09:50:45;100182.80;;;27.27;34.69
47588;BME280;34356;45.788;12.046;2022-08-24T09:55:02;100178.27;;;27.81;34.65
47588;BME280;34356;45.788;12.046;2022-08-24T09:57:45;100174.30;;;27.65;34.51
47588;BME280;34356;45.788;12.046;2022-08-24T10:00:18;100173.83;;;27.50;34.42
47588;BME280;34356;45.788;12.046;2022-08-24T10:02:58;100169.28;;;27.29;34.34
47588;BME280;34356;45.788;12.046;2022-08-24T10:05:41;100166.14;;;27.61;34.34
47588;BME280;34356;45.788;12.046;2022-08-24T10:08:18;100163.86;;;27.33;34.26
47588;BME280;34356;45.788;12.046;2022-08-24T10:10:52;100163.44;;;27.65;34.17
47588;BME280;34356;45.788;12.046;2022-08-24T10:13:35;100163.65;;;27.75;34.19
47588;BME280;34356;45.788;12.046;2022-08-24T10:16:23;100159.99;;;27.53;34.09
47588;BME280;34356;45.788;12.046;2022-08-24T10:18:59;100160.25;;;27.56;34.07
47588;BME280;34356;45.788;12.046;2022-08-24T10:21:43;100160.83;;;27.57;34.02
47588;BME280;34356;45.788;12.046;2022-08-24T10:24:24;100159.61;;;27.89;33.99
47588;BME280;34356;45.788;12.046;2022-08-24T10:27:22;100157.34;;;27.67;33.91
47588;BME280;34356;45.788;12.046;2022-08-24T10:30:05;100155.63;;;28.02;33.84
47588;BME280;34356;45.788;12.046;2022-08-24T10:32:47;100145.71;;;28.15;33.79
47588;BME280;34356;45.788;12.046;2022-08-24T10:35:24;100146.97;;;28.26;33.58
47588;BME280;34356;45.788;12.046;2022-08-24T10:38:09;100145.74;;;28.07;33.51
47588;BME280;34356;45.788;12.046;2022-08-24T10:40:47;100141.71;;;28.18;33.32
47588;BME280;34356;45.788;12.046;2022-08-24T10:43:32;100142.19;;;28.25;33.25
47588;BME280;34356;45.788;12.046;2022-08-24T10:47:16;100142.90;;;28.37;33.28
47588;BME280;34356;45.788;12.046;2022-08-24T10:50:15;100146.16;;;28.24;33.04
47588;BME280;34356;45.788;12.046;2022-08-24T10:52:56;100140.70;;;28.53;32.77
47588;BME280;34356;45.788;12.046;2022-08-24T10:55:31;100138.50;;;28.09;32.78
47588;BME280;34356;45.788;12.046;2022-08-24T10:58:09;100139.77;;;28.14;32.77
47588;BME280;34356;45.788;12.046;2022-08-24T11:00:39;100135.75;;;28.23;32.77
47588;BME280;34356;45.788;12.046;2022-08-24T11:03:11;100134.32;;;28.36;32.67
47588;BME280;34356;45.788;12.046;2022-08-24T11:05:42;100135.41;;;28.86;32.39
47588;BME280;34356;45.788;12.046;2022-08-24T11:08:18;100135.78;;;28.96;32.50
47588;BME280;34356;45.788;12.046;2022-08-24T11:11:01;100133.13;;;29.04;32.36
47588;BME280;34356;45.788;12.046;2022-08-24T11:13:29;100134.14;;;29.11;32.24
47588;BME280;34356;45.788;12.046;2022-08-24T11:16:00;100131.66;;;28.72;32.24
47588;BME280;34356;45.788;12.046;2022-08-24T11:18:46;100129.85;;;28.76;32.14
47588;BME280;34356;45.788;12.046;2022-08-24T11:21:31;100128.21;;;29.06;32.10
47588;BME280;34356;45.788;12.046;2022-08-24T11:24:05;100127.88;;;28.91;31.78
47588;BME280;34356;45.788;12.046;2022-08-24T11:26:47;100127.45;;;29.19;31.63
47588;BME280;34356;45.788;12.046;2022-08-24T11:29:16;100125.84;;;29.08;31.64
47588;BME280;34356;45.788;12.046;2022-08-24T11:31:48;100117.54;;;29.14;31.40
47588;BME280;34356;45.788;12.046;2022-08-24T11:34:31;100113.34;;;29.21;31.37
47588;BME280;34356;45.788;12.046;2022-08-24T11:36:58;100112.31;;;28.73;31.28
47588;BME280;34356;45.788;12.046;2022-08-24T11:39:30;100116.97;;;29.25;31.25
47588;BME280;34356;45.788;12.046;2022-08-24T11:42:06;100107.59;;;29.31;31.13
47588;BME280;34356;45.788;12.046;2022-08-24T11:44:40;100103.14;;;29.39;31.10
47588;BME280;34356;45.788;12.046;2022-08-24T11:47:51;100100.58;;;29.48;30.94
47588;BME280;34356;45.788;12.046;2022-08-24T11:50:27;100097.01;;;29.64;30.80
47588;BME280;34356;45.788;12.046;2022-08-24T11:53:06;100091.89;;;29.77;30.63
47588;BME280;34356;45.788;12.046;2022-08-24T11:55:41;100090.21;;;29.59;30.64
47588;BME280;34356;45.788;12.046;2022-08-24T11:58:13;100088.10;;;29.67;30.33
47588;BME280;34356;45.788;12.046;2022-08-24T12:00:46;100086.17;;;29.78;30.19
47588;BME280;34356;45.788;12.046;2022-08-24T12:03:36;100086.01;;;30.13;29.84
47588;BME280;34356;45.788;12.046;2022-08-24T12:06:17;100089.23;;;29.83;29.82
47588;BME280;34356;45.788;12.046;2022-08-24T12:08:51;100090.22;;;29.89;29.93
47588;BME280;34356;45.788;12.046;2022-08-24T12:11:28;100086.91;;;29.91;29.81
47588;BME280;34356;45.788;12.046;2022-08-24T12:14:00;100088.56;;;30.01;29.71
47588;BME280;34356;45.788;12.046;2022-08-24T12:16:35;100085.24;;;29.91;29.45
47588;BME280;34356;45.788;12.046;2022-08-24T12:19:08;100082.53;;;29.99;28.96
47588;BME280;34356;45.788;12.046;2022-08-24T12:21:40;100081.55;;;30.25;29.07
47588;BME280;34356;45.788;12.046;2022-08-24T12:24:12;100077.86;;;30.14;29.06
47588;BME280;34356;45.788;12.046;2022-08-24T12:26:44;100079.90;;;30.45;28.84
47588;BME280;34356;45.788;12.046;2022-08-24T12:29:19;100075.86;;;30.56;28.64
47588;BME280;34356;45.788;12.046;2022-08-24T12:31:51;100073.15;;;30.68;28.60
47588;BME280;34356;45.788;12.046;2022-08-24T12:34:26;100077.19;;;30.65;28.50
47588;BME280;34356;45.788;12.046;2022-08-24T12:37:01;100074.46;;;30.82;28.46
47588;BME280;34356;45.788;12.046;2022-08-24T12:39:34;100072.53;;;31.02;28.15
47588;BME280;34356;45.788;12.046;2022-08-24T12:42:07;100072.91;;;31.18;28.05
47588;BME280;34356;45.788;12.046;2022-08-24T12:44:44;100069.05;;;31.02;28.08
47588;BME280;34356;45.788;12.046;2022-08-24T12:47:20;100067.09;;;31.11;27.93
47588;BME280;34356;45.788;12.046;2022-08-24T12:49:53;100070.59;;;31.47;27.72
47588;BME280;34356;45.788;12.046;2022-08-24T12:52:38;100066.04;;;31.16;27.60
47588;BME280;34356;45.788;12.046;2022-08-24T12:55:34;100063.53;;;31.63;27.39
47588;BME280;34356;45.788;12.046;2022-08-24T12:58:10;100059.39;;;31.45;27.05
47588;BME280;34356;45.788;12.046;2022-08-24T13:00:50;100053.95;;;31.69;26.83
47588;BME280;34356;45.788;12.046;2022-08-24T13:03:25;100053.76;;;31.91;26.61
47588;BME280;34356;45.788;12.046;2022-08-24T13:06:00;100051.90;;;31.89;26.46
47588;BME280;34356;45.788;12.046;2022-08-24T13:08:36;100053.31;;;32.39;26.29